Time;durP1;ratioP1;P1;durP2;ratioP2;P2;SDS_P1;SDS_P2;PMS_P1;PMS_P2;Temp;Humidity;BMP_temperature;BMP_pressure;BME280_temperature;BME280_humidity;BME280_pressure;Samples;Min_cycle;Max_cycle;Signal;HPM_P1;HPM_P2
2023/03/12 00:01:34;;;;;;;13.75;7.55;;;6.80;65.90;;;1.73;100.00;95119.88;4976144;28;20495;-51
2023/03/12 00:04:09;;;;;;;15.18;7.97;;;6.80;65.90;;;1.74;100.00;95121.47;4998407;28;20408;-52
2023/03/12 00:06:39;;;;;;;13.43;7.60;;;6.90;66.00;;;1.75;100.00;95123.84;4994027;28;20496;-53
2023/03/12 00:09:08;;;;;;;12.85;6.95;;;6.90;65.90;;;1.75;100.00;95125.69;4976028;28;20038;-54
2023/03/12 00:11:34;;;;;;;13.98;7.40;;;6.90;65.90;;;1.73;100.00;95133.00;4985525;28;20476;-53
2023/03/12 00:14:00;;;;;;;16.02;7.82;;;6.90;65.90;;;1.69;100.00;95123.94;4949624;28;20045;-50
2023/03/12 00:16:27;;;;;;;12.57;7.45;;;6.90;65.90;;;1.70;100.00;95131.63;4975986;28;20459;-52
2023/03/12 00:18:55;;;;;;;12.98;8.07;;;6.90;65.90;;;1.71;100.00;95127.97;4968762;28;20079;-56
2023/03/12 00:21:22;;;;;;;14.10;6.72;;;6.80;65.80;;;1.70;100.00;95131.63;4988543;28;20500;-56
2023/03/12 00:23:54;;;;;;;14.30;7.82;;;6.90;65.80;;;1.72;100.00;95137.44;4992384;28;20128;-50
2023/03/12 00:26:21;;;;;;;13.30;7.40;;;6.90;65.90;;;1.72;100.00;95141.88;5004104;28;20498;-50
2023/03/12 00:28:59;;;;;;;13.55;7.18;;;6.80;65.80;;;1.73;100.00;95136.44;4979579;28;20026;-51
2023/03/12 00:31:32;;;;;;;11.07;6.72;;;6.80;66.00;;;1.72;100.00;95139.25;4985989;28;20734;-50
2023/03/12 00:34:00;;;;;;;15.50;8.07;;;6.80;66.00;;;1.73;100.00;95133.81;4945707;28;20041;-51
2023/03/12 00:36:33;;;;;;;14.48;7.88;;;6.80;66.00;;;1.73;100.00;95146.13;4991335;28;20535;-50
2023/03/12 00:39:00;;;;;;;;;;;6.80;66.10;;;1.73;100.00;95144.31;4975388;28;20038;-53
2023/03/12 00:41:33;;;;;;;13.52;7.68;;;6.80;65.80;;;1.73;100.00;95141.69;4971735;28;19948;-50
2023/03/12 00:44:02;;;;;;;;;;;6.80;66.00;;;1.74;100.00;95142.47;4992620;28;20369;-52
2023/03/12 00:46:31;;;;;;;14.48;7.63;;;6.80;65.80;;;1.72;100.00;95147.13;4981183;28;19905;-51
2023/03/12 00:48:57;;;;;;;13.05;7.53;;;6.70;66.00;;;1.74;100.00;95148.53;4992727;28;20477;-51
2023/03/12 00:51:35;;;;;;;15.05;7.72;;;6.80;66.00;;;1.77;100.00;95149.91;4990927;28;20080;-50
2023/03/12 00:54:03;;;;;;;14.02;7.38;;;6.80;66.10;;;1.76;100.00;95140.44;5002462;28;20029;-50
2023/03/12 00:56:32;;;;;;;14.90;8.50;;;6.80;66.10;;;1.77;100.00;95144.66;4986371;28;20076;-50
2023/03/12 00:59:07;;;;;;;15.05;7.68;;;6.80;66.20;;;1.78;100.00;95147.06;4978859;28;20380;-52
2023/03/12 01:01:35;;;;;;;11.48;7.10;;;6.90;66.30;;;1.80;100.00;95137.16;5000694;28;20040;-50
2023/03/12 01:04:01;;;;;;;13.50;7.47;;;6.80;66.20;;;1.80;100.00;95146.84;4996869;28;20029;-53
2023/03/12 01:06:27;;;;;;;13.23;7.30;;;6.90;66.20;;;1.78;100.00;95141.81;4991703;28;20076;-50
2023/03/12 01:08:56;;;;;;;11.48;7.00;;;6.90;66.30;;;1.82;100.00;95147.44;4979272;28;20417;-52
2023/03/12 01:11:22;;;;;;;15.77;6.72;;;6.90;67.10;;;1.78;100.00;95147.06;4980635;28;20101;-53
2023/03/12 01:13:49;;;;;;;11.65;6.38;;;6.90;66.30;;;1.73;100.00;95143.50;4991824;28;20065;-50
2023/03/12 01:16:21;;;;;;;11.07;6.53;;;6.90;66.30;;;1.78;100.00;95146.25;4981903;28;20117;-51
2023/03/12 01:18:49;;;;;;;10.50;6.20;;;6.80;66.30;;;1.80;100.00;95145.03;4977106;28;20357;-50
2023/03/12 01:21:15;;;;;;;13.43;6.35;;;6.90;66.40;;;1.85;100.00;95149.63;4994883;28;20526;-53
2023/03/12 01:23:41;;;;;;;9.45;5.85;;;6.90;66.40;;;1.82;100.00;95147.44;4994905;28;20081;-54
2023/03/12 01:26:07;;;;;;;11.40;5.47;;;6.90;66.40;;;1.78;100.00;95160.19;5001323;28;20629;-52
2023/03/12 01:28:35;;;;;;;9.43;5.30;;;6.90;66.40;;;1.80;100.00;95154.72;4987505;28;20045;-52
2023/03/12 01:31:17;;;;;;;9.90;5.78;;;6.90;66.40;;;1.81;100.00;95156.31;4971859;28;20113;-52
2023/03/12 01:33:47;;;;;;;12.15;6.25;;;6.90;66.50;;;1.80;100.00;95150.28;4971942;28;20121;-51
2023/03/12 01:36:32;;;;;;;10.10;5.55;;;6.90;66.40;;;1.81;100.00;95156.31;4986209;28;20046;-50
2023/03/12 01:38:58;;;;;;;17.63;5.60;;;6.90;66.50;;;1.79;100.00;95156.56;4964271;28;20022;-51
2023/03/12 01:41:34;;;;;;;8.43;4.93;;;6.90;66.50;;;1.80;100.00;95158.16;4986780;28;20025;-53
2023/03/12 01:44:12;;;;;;;9.23;5.10;;;6.90;66.60;;;1.79;100.00;95159.19;4999013;28;20025;-50
2023/03/12 01:46:43;;;;;;;10.45;5.10;;;6.90;66.50;;;1.78;100.00;95165.44;4984767;28;20026;-50
2023/03/12 01:49:33;;;;;;;9.80;5.43;;;6.90;66.50;;;1.82;100.00;95163.19;4983996;28;20054;-51
2023/03/12 01:52:26;;;;;;;8.57;4.63;;;6.90;66.50;;;1.79;100.00;95143.44;4974048;28;20596;-50
2023/03/12 01:55:06;;;;;;;7.70;4.32;;;6.90;66.50;;;1.80;100.00;95158.16;4978601;28;20041;-53
2023/03/12 01:57:51;;;;;;;7.85;4.22;;;6.90;66.50;;;1.76;100.00;95148.31;4973441;28;20030;-50
2023/03/12 02:00:26;;;;;;;8.35;4.60;;;6.90;66.40;;;1.75;100.00;95147.50;4992124;28;20532;-51
2023/03/12 02:03:00;;;;;;;6.82;4.55;;;6.90;66.50;;;1.67;100.00;95149.63;4998400;28;20584;-52
2023/03/12 02:05:47;;;;;;;9.63;5.10;;;6.90;66.50;;;1.67;100.00;95155.69;4985210;28;20021;-50
2023/03/12 02:08:16;;;;;;;6.47;4.40;;;6.80;66.40;;;1.73;100.00;95154.81;4983529;28;20034;-54
2023/03/12 02:10:48;;;;;;;8.40;4.40;;;6.80;66.40;;;1.76;100.00;95151.75;4969959;28;20489;-50
2023/03/12 02:13:26;;;;;;;5.82;3.90;;;6.90;66.60;;;1.74;100.00;95151.16;4983283;28;20041;-54
2023/03/12 02:15:55;;;;;;;5.47;3.95;;;6.80;66.60;;;1.75;100.00;95151.94;4991372;28;20049;-51
2023/03/12 02:18:22;;;;;;;6.25;4.20;;;6.80;66.60;;;1.74;100.00;95150.34;4974842;28;20025;-52
2023/03/12 02:21:20;;;;;;;6.53;4.00;;;6.80;66.70;;;1.69;100.00;95148.38;4988868;28;20084;-55
2023/03/12 02:24:07;;;;;;;8.32;3.92;;;6.80;66.70;;;1.67;100.00;95155.69;4976625;28;20133;-50
2023/03/12 02:26:37;;;;;;;5.15;3.17;;;6.80;66.80;;;1.69;100.00;95153.63;4990884;28;20018;-52
2023/03/12 02:29:05;;;;;;;6.80;4.05;;;6.80;66.80;;;1.71;100.00;95156.84;4958454;28;20033;-54
2023/03/12 02:31:45;;;;;;;11.25;4.22;;;6.70;66.80;;;1.73;100.00;95161.88;4981587;28;20534;-50
2023/03/12 02:34:14;;;;;;;4.88;3.45;;;6.70;66.80;;;1.75;100.00;95162.44;4981110;28;20037;-50
2023/03/12 02:36:40;;;;;;;11.20;3.72;;;6.70;66.90;;;1.75;100.00;95155.38;4985963;28;20065;-52
2023/03/12 02:39:06;;;;;;;5.68;3.50;;;6.70;66.90;;;1.77;100.00;95160.41;4991893;28;20441;-51
2023/03/12 02:41:57;;;;;;;5.68;3.58;;;6.70;66.80;;;1.77;100.00;95163.84;4976663;28;20116;-51
2023/03/12 02:44:30;;;;;;;6.00;3.78;;;6.80;66.90;;;1.78;100.00;95162.81;4968701;28;20111;-50
2023/03/12 02:47:04;;;;;;;4.43;2.85;;;6.70;66.90;;;1.80;100.00;95167.84;4986714;28;20045;-50
2023/03/12 02:49:34;;;;;;;4.93;3.20;;;6.80;66.90;;;1.81;100.00;95162.38;4968420;28;20029;-52
2023/03/12 02:52:01;;;;;;;5.32;3.70;;;6.80;66.90;;;1.82;100.00;95152.69;5005652;28;20067;-51
2023/03/12 02:54:30;;;;;;;6.32;3.40;;;6.80;66.90;;;1.79;100.00;95161.81;4989455;28;20034;-50
2023/03/12 02:56:57;;;;;;;6.18;3.38;;;6.80;66.90;;;1.79;100.00;95161.00;4990411;28;20598;-51
2023/03/12 02:59:25;;;;;;;5.85;3.42;;;6.80;66.90;;;1.79;100.00;95164.44;4973626;28;20049;-55
2023/03/12 03:01:58;;;;;;;5.70;3.55;;;6.90;66.90;;;1.81;100.00;95167.63;4986218;28;20030;-48
2023/03/12 03:04:26;;;;;;;3.83;2.80;;;6.90;66.90;;;1.83;100.00;95170.06;4990337;28;20434;-50
2023/03/12 03:06:56;;;;;;;7.60;3.35;;;6.90;66.90;;;1.86;100.00;95174.88;4984128;28;20037;-50
2023/03/12 03:09:27;;;;;;;4.28;3.10;;;6.90;66.90;;;1.88;100.00;95170.22;4985109;28;20555;-51
2023/03/12 03:11:53;;;;;;;8.68;3.47;;;6.90;67.00;;;1.86;100.00;95166.97;4970617;28;20121;-48
2023/03/12 03:14:19;;;;;;;7.28;3.70;;;6.90;67.00;;;1.82;100.00;95157.94;4980447;28;20124;-48
2023/03/12 03:16:45;;;;;;;4.90;3.45;;;6.90;66.90;;;1.83;100.00;95152.47;4973366;28;20022;-53
2023/03/12 03:19:13;;;;;;;11.43;3.63;;;6.90;66.90;;;1.83;100.00;95143.78;4972471;28;20136;-51
2023/03/12 03:21:42;;;;;;;7.03;3.47;;;6.80;66.90;;;1.83;100.00;95139.34;4993508;28;20432;-51
2023/03/12 03:24:15;;;;;;;5.70;3.83;;;6.80;66.90;;;1.79;100.00;95158.38;4973849;28;20042;-50
2023/03/12 03:26:43;;;;;;;7.43;3.75;;;6.80;67.00;;;1.85;100.00;95170.66;4960219;28;20052;-51
2023/03/12 03:29:09;;;;;;;7.15;4.10;;;6.90;67.00;;;1.85;100.00;95166.19;4970030;28;20393;-50
2023/03/12 03:31:35;;;;;;;6.65;3.78;;;6.90;67.10;;;1.85;100.00;95171.44;4960966;28;20034;-52
2023/03/12 03:34:04;;;;;;;8.35;3.88;;;6.80;67.00;;;1.90;100.00;95172.59;4971088;28;20056;-52
2023/03/12 03:36:39;;;;;;;9.88;4.32;;;6.80;67.10;;;1.87;100.00;95165.94;4971427;28;20028;-53
2023/03/12 03:39:04;;;;;;;6.57;4.38;;;6.90;67.30;;;1.90;100.00;95169.97;4970257;28;20042;-53
2023/03/12 03:41:34;;;;;;;8.27;3.92;;;6.80;67.20;;;1.91;100.00;95168.94;4971255;28;20496;-50
2023/03/12 03:44:04;;;;;;;8.38;4.05;;;6.90;67.30;;;1.90;100.00;95170.78;4966438;28;20429;-51
2023/03/12 03:46:30;;;;;;;7.30;4.15;;;6.80;67.20;;;1.90;100.00;95162.09;4959521;28;20019;-51
2023/03/12 03:48:59;;;;;;;7.45;4.20;;;6.80;67.20;;;1.84;100.00;95163.75;4923637;28;20465;-55
2023/03/12 03:51:31;;;;;;;11.18;5.03;;;6.90;67.30;;;1.81;100.00;95153.69;4933724;29;20436;-50
2023/03/12 03:53:59;;;;;;;6.90;4.33;;;6.90;67.30;;;1.84;100.00;95145.38;4969265;28;20437;-54
2023/03/12 03:56:28;;;;;;;10.05;4.60;;;6.90;67.30;;;1.84;100.00;95135.66;4979851;28;20125;-52
2023/03/12 03:58:54;;;;;;;9.15;4.90;;;6.90;67.40;;;1.83;100.00;95133.28;4941106;28;20516;-51
2023/03/12 04:01:22;;;;;;;8.63;5.10;;;6.90;67.40;;;1.85;100.00;95126.00;4962673;28;20026;-51
2023/03/12 04:03:48;;;;;;;8.73;5.15;;;6.90;67.40;;;1.83;100.00;95133.28;4928189;28;20842;-58
2023/03/12 04:06:14;;;;;;;11.73;5.78;;;6.90;67.40;;;1.80;100.00;95131.09;4953261;28;20079;-52
2023/03/12 04:08:49;;;;;;;9.65;5.53;;;6.90;67.40;;;1.78;100.00;95112.91;4936503;28;20068;-50
2023/03/12 04:11:20;;;;;;;9.73;5.28;;;6.90;67.50;;;1.84;100.00;95109.41;4952217;28;20112;-52
2023/03/12 04:13:50;;;;;;;10.18;5.68;;;6.90;67.50;;;1.81;100.00;95111.69;4956119;28;20047;-50
2023/03/12 04:16:17;;;;;;;9.77;5.82;;;6.80;67.50;;;1.85;100.00;95128.63;4953961;28;20058;-51
2023/03/12 04:18:44;;;;;;;13.02;6.45;;;6.90;67.60;;;1.81;100.00;95137.94;4959800;28;20063;-55
2023/03/12 04:21:16;;;;;;;10.38;5.50;;;6.80;67.60;;;1.87;100.00;95149.41;4968651;28;20039;-52
2023/03/12 04:23:42;;;;;;;8.57;4.77;;;6.80;67.70;;;1.85;100.00;95145.19;4972471;28;20085;-55
2023/03/12 04:26:08;;;;;;;10.57;5.18;;;6.90;67.80;;;1.91;100.00;95145.28;4960726;28;20296;-53
2023/03/12 04:28:36;;;;;;;7.05;4.47;;;6.80;67.80;;;1.92;100.00;95152.97;4950901;28;20030;-52
2023/03/12 04:31:07;;;;;;;8.02;5.28;;;6.80;67.80;;;1.93;100.00;95151.94;4966396;28;20026;-56
2023/03/12 04:33:41;;;;;;;7.80;4.50;;;6.90;68.00;;;1.96;100.00;95153.34;4953162;28;20041;-53
2023/03/12 04:36:08;;;;;;;6.25;4.15;;;6.90;68.00;;;1.98;100.00;95159.97;4970509;28;20037;-55
2023/03/12 04:38:37;;;;;;;6.82;4.00;;;6.90;68.10;;;1.99;100.00;95158.16;4965930;28;20031;-58
2023/03/12 04:41:12;;;;;;;9.02;4.13;;;6.90;68.10;;;2.00;100.00;95163.16;4954529;28;20121;-54
2023/03/12 04:43:39;;;;;;;8.32;4.25;;;6.90;68.20;;;2.03;100.00;95156.66;4947916;28;20389;-56
2023/03/12 04:46:07;;;;;;;6.63;4.22;;;6.90;68.10;;;2.07;100.00;95153.41;4954721;28;20041;-51
2023/03/12 04:48:34;;;;;;;7.03;3.90;;;6.90;68.10;;;2.10;100.00;95141.66;4954789;28;20042;-53
2023/03/12 04:51:15;;;;;;;8.20;4.15;;;6.90;68.10;;;2.09;100.00;95140.81;4953173;28;20116;-56
2023/03/12 04:53:41;;;;;;;5.93;4.28;;;7.00;68.20;;;2.08;100.00;95130.53;4962550;28;20026;-58
2023/03/12 04:56:07;;;;;;;7.47;4.35;;;7.00;68.10;;;2.09;100.00;95132.13;4955538;28;20030;-54
2023/03/12 04:58:34;;;;;;;7.10;4.05;;;7.00;68.20;;;2.07;100.00;95131.56;4962727;28;20034;-54
2023/03/12 05:01:00;;;;;;;6.95;4.43;;;7.00;68.10;;;2.13;100.00;95135.94;4963963;28;20081;-50
2023/03/12 05:03:30;;;;;;;7.28;4.03;;;7.10;68.10;;;2.16;100.00;95132.84;4963308;28;20053;-55
2023/03/12 05:05:59;;;;;;;8.60;4.60;;;7.10;68.10;;;2.19;100.00;95129.78;4948727;28;20037;-54
2023/03/12 05:08:25;;;;;;;7.53;4.20;;;7.10;68.20;;;2.21;100.00;95122.47;4934392;28;20050;-55
2023/03/12 05:10:50;;;;;;;9.52;4.50;;;7.10;68.20;;;2.24;100.00;95129.13;4969923;28;20026;-55
2023/03/12 05:13:25;;;;;;;6.90;4.43;;;7.20;68.20;;;2.25;100.00;95128.88;4953099;28;20034;-53
2023/03/12 05:15:51;;;;;;;9.18;4.40;;;7.20;68.30;;;2.27;100.00;95123.41;4972860;28;20034;-56
2023/03/12 05:18:20;;;;;;;8.55;4.45;;;7.20;68.30;;;2.29;100.00;95124.81;4954185;28;20469;-54
2023/03/12 05:20:56;;;;;;;7.90;4.72;;;7.20;68.30;;;2.29;100.00;95122.19;4952806;28;20022;-54
2023/03/12 05:23:21;;;;;;;7.30;4.20;;;7.20;68.30;;;2.34;100.00;95118.88;4940811;28;20053;-56
2023/03/12 05:25:47;;;;;;;8.88;4.65;;;7.30;68.30;;;2.37;100.00;95123.66;4975617;28;20439;-54
2023/03/12 05:28:13;;;;;;;7.28;4.63;;;7.30;68.30;;;2.39;100.00;95126.88;4978348;28;20034;-53
2023/03/12 05:30:46;;;;;;;8.00;4.55;;;7.30;68.30;;;2.45;100.00;95130.44;4967211;28;20022;-54
2023/03/12 05:33:11;;;;;;;12.23;4.57;;;7.30;68.40;;;2.48;100.00;95130.81;4969261;28;20076;-57
2023/03/12 05:35:37;;;;;;;8.77;4.60;;;7.40;68.40;;;2.48;100.00;95143.16;4978538;28;20038;-56
2023/03/12 05:38:03;;;;;;;8.35;4.43;;;7.40;68.30;;;2.51;100.00;95145.34;4969297;28;20022;-53
2023/03/12 05:40:32;;;;;;;7.15;4.53;;;7.40;68.30;;;2.51;100.00;95145.34;4971870;28;20117;-55
2023/03/12 05:43:01;;;;;;;6.97;4.55;;;7.40;68.30;;;2.51;100.00;95158.47;4968087;28;20113;-54
2023/03/12 05:45:26;;;;;;;19.70;4.72;;;7.50;68.30;;;2.48;100.00;95159.72;4969573;28;20026;-57
2023/03/12 05:47:59;;;;;;;22.50;5.40;;;7.50;68.30;;;2.52;100.00;95160.06;4953487;28;20026;-55
2023/03/12 05:50:26;;;;;;;19.75;5.10;;;7.50;68.30;;;2.57;100.00;95154.97;4954650;28;20148;-54
2023/03/12 05:53:01;;;;;;;15.25;4.43;;;7.50;68.30;;;2.57;100.00;95157.59;4970120;28;20034;-54
2023/03/12 05:55:26;;;;;;;6.60;3.92;;;7.50;68.20;;;2.60;100.00;95158.94;4968853;28;20036;-55
2023/03/12 05:57:52;;;;;;;6.95;4.25;;;7.50;68.20;;;2.62;100.00;95165.59;4937577;28;20026;-53
2023/03/12 06:00:19;;;;;;;7.30;4.18;;;7.50;68.20;;;2.62;100.00;95170.03;4969123;28;20069;-53
2023/03/12 06:02:54;;;;;;;6.55;4.05;;;7.50;68.30;;;2.62;100.00;95172.69;4929580;28;20054;-57
2023/03/12 06:05:20;;;;;;;7.10;4.03;;;7.50;68.30;;;2.57;100.00;95173.38;4969365;28;20026;-52
2023/03/12 06:07:46;;;;;;;20.10;4.57;;;7.50;68.20;;;2.60;100.00;95158.94;4969743;28;20393;-51
2023/03/12 06:10:15;;;;;;;92.10;7.93;;;7.50;68.20;;;2.64;100.00;95163.53;4973860;28;20049;-51
2023/03/12 06:12:41;;;;;;;6.35;4.05;;;7.60;68.30;;;2.67;100.00;95155.19;4969815;28;20436;-51
2023/03/12 06:15:12;;;;;;;7.45;4.43;;;7.60;68.20;;;2.67;100.00;95157.03;4968922;28;20026;-53
2023/03/12 06:17:38;;;;;;;8.98;4.80;;;7.60;68.30;;;2.71;100.00;95156.34;4970557;28;20487;-54
2023/03/12 06:20:06;;;;;;;15.20;4.90;;;7.70;68.30;;;2.75;100.00;95156.69;4936092;28;20282;-53
2023/03/12 06:22:35;;;;;;;7.03;4.78;;;7.70;68.30;;;2.71;100.00;95153.72;4973910;28;20140;-51
2023/03/12 06:25:01;;;;;;;6.60;4.00;;;7.70;68.20;;;2.75;100.00;95161.94;4991970;28;20022;-52
2023/03/12 06:27:27;;;;;;;6.35;4.28;;;7.80;68.30;;;2.75;100.00;95164.59;4971347;28;20021;-50
2023/03/12 06:29:53;;;;;;;6.97;4.15;;;7.80;68.10;;;2.74;100.00;95170.88;4982296;28;20117;-55
2023/03/12 06:32:22;;;;;;;6.22;4.00;;;7.80;68.00;;;2.74;100.00;95169.06;4988237;28;20040;-54
2023/03/12 06:34:48;;;;;;;5.05;3.35;;;7.90;68.10;;;2.81;100.00;95162.88;4968443;28;20030;-51
2023/03/12 06:37:14;;;;;;;14.43;4.18;;;7.90;68.10;;;2.77;100.00;95160.72;4966234;28;20381;-51
2023/03/12 06:39:40;;;;;;;7.47;3.70;;;7.90;68.00;;;2.81;100.00;95179.47;4980520;28;20458;-53
2023/03/12 06:42:07;;;;;;;5.63;3.50;;;7.90;68.00;;;2.83;100.00;95174.00;4981357;28;20026;-54
2023/03/12 06:44:36;;;;;;;6.50;3.13;;;7.90;68.20;;;2.89;100.00;95187.03;4997692;28;20021;-51
2023/03/12 06:47:01;;;;;;;4.75;3.28;;;7.90;68.10;;;2.94;100.00;95181.09;4989483;28;20076;-58
2023/03/12 06:49:32;;;;;;;5.43;2.97;;;8.00;68.20;;;3.00;100.00;95188.88;4977399;28;20489;-55
2023/03/12 06:52:01;;;;;;;4.45;3.30;;;8.00;68.20;;;3.07;100.00;95180.09;4988403;28;20475;-53
2023/03/12 06:54:26;;;;;;;6.10;3.20;;;8.10;68.20;;;3.10;100.00;95182.25;4978967;28;20072;-51
2023/03/12 06:57:04;;;;;;;5.00;3.47;;;8.20;69.00;;;3.11;100.00;95202.31;4975842;28;20492;-54
2023/03/12 06:59:51;;;;;;;4.85;3.10;;;8.20;68.10;;;3.14;100.00;95204.47;4968921;28;20025;-55
2023/03/12 07:02:17;;;;;;;4.53;2.90;;;8.30;68.10;;;3.12;100.00;95199.44;4983499;28;20381;-52
2023/03/12 07:04:42;;;;;;;3.30;2.40;;;8.30;67.90;;;3.09;100.00;95201.72;4993399;28;20037;-55
2023/03/12 07:07:10;;;;;;;4.03;2.85;;;8.30;67.90;;;3.15;100.00;95209.50;5000329;28;20030;-55
2023/03/12 07:09:36;;;;;;;5.43;2.55;;;8.30;67.90;;;3.13;100.00;95208.13;4979145;28;20017;-54
2023/03/12 07:12:03;;;;;;;3.92;2.55;;;8.40;67.90;;;3.21;100.00;95213.88;4971991;28;20398;-52
2023/03/12 07:14:29;;;;;;;3.90;2.50;;;8.40;67.80;;;3.29;100.00;95227.72;4966074;28;20128;-53
2023/03/12 07:16:55;;;;;;;3.90;2.58;;;8.50;67.80;;;3.33;100.00;95228.88;5006931;28;20051;-51
2023/03/12 07:19:21;;;;;;;3.17;2.63;;;8.50;67.80;;;3.33;100.00;95234.94;5005035;28;20388;-53
2023/03/12 07:21:47;;;;;;;4.30;2.50;;;8.50;67.80;;;3.36;100.00;95237.13;4992676;28;20034;-52
2023/03/12 07:24:15;;;;;;;3.92;2.70;;;8.60;67.80;;;3.42;100.00;95241.50;4992964;28;20065;-54
2023/03/12 07:26:45;;;;;;;3.30;2.65;;;8.60;67.70;;;3.48;100.00;95245.84;4986978;28;20025;-56
2023/03/12 07:29:10;;;;;;;2.83;2.53;;;8.70;67.70;;;3.57;100.00;95248.13;4991775;28;20345;-55
2023/03/12 07:31:36;;;;;;;3.28;2.05;;;8.70;67.70;;;3.61;100.00;95252.72;4987641;28;20342;-53
2023/03/12 07:34:04;;;;;;;4.35;2.30;;;8.70;67.60;;;3.64;100.00;95254.91;4984269;28;20057;-52
2023/03/12 07:36:33;;;;;;;3.65;2.58;;;8.80;67.60;;;3.62;100.00;95256.94;4980300;28;20026;-52
2023/03/12 07:38:59;;;;;;;3.28;2.55;;;8.90;67.60;;;3.67;100.00;95261.53;4982192;28;20049;-55
2023/03/12 07:41:25;;;;;;;4.65;2.75;;;8.90;67.50;;;3.60;100.00;95260.84;4988847;28;20079;-50
2023/03/12 07:44:02;;;;;;;3.53;2.97;;;8.90;67.40;;;3.60;100.00;95259.00;4944318;28;20033;-48
2023/03/12 07:46:28;;;;;;;19.17;3.28;;;9.00;67.30;;;3.67;100.00;95264.19;4989317;28;20014;-51
2023/03/12 07:48:59;;;;;;;4.30;3.17;;;9.00;67.30;;;3.74;100.00;95259.59;4972066;28;20396;-48
2023/03/12 07:51:35;;;;;;;3.10;2.25;;;9.00;67.30;;;3.83;100.00;95263.50;4976226;28;20105;-50
2023/03/12 07:54:07;;;;;;;5.47;2.72;;;9.10;67.30;;;3.86;100.00;95265.66;4980851;28;20037;-50
2023/03/12 07:56:35;;;;;;;3.55;2.70;;;9.10;67.30;;;3.87;100.00;95256.72;4981136;28;20022;-49
2023/03/12 07:59:04;;;;;;;2.85;2.47;;;9.10;67.30;;;3.90;100.00;95276.53;4987642;28;20034;-49
2023/03/12 08:01:31;;;;;;;3.53;2.80;;;9.20;67.30;;;3.92;100.00;95272.66;4957607;28;20496;-50
2023/03/12 08:04:01;;;;;;;3.50;2.70;;;9.20;67.30;;;3.97;100.00;95269.31;4961662;28;20041;-53
2023/03/12 08:06:31;;;;;;;3.13;2.67;;;9.30;67.30;;;3.96;100.00;95278.25;4966457;28;20029;-48
2023/03/12 08:08:57;;;;;;;3.67;2.90;;;9.30;67.10;;;4.03;100.00;95275.50;4974791;28;20480;-53
2023/03/12 08:11:22;;;;;;;4.30;2.72;;;9.30;67.00;;;4.06;100.00;95275.84;4966007;28;20036;-52
2023/03/12 08:13:48;;;;;;;4.75;3.58;;;9.30;67.10;;;3.98;100.00;95281.47;4987991;28;20087;-49
2023/03/12 08:16:14;;;;;;;5.82;3.90;;;9.30;67.00;;;4.01;100.00;95282.81;4990311;28;20029;-54
2023/03/12 08:18:41;;;;;;;3.95;2.83;;;9.30;67.10;;;4.11;100.00;95283.06;4961019;28;20030;-51
2023/03/12 08:21:07;;;;;;;3.85;2.80;;;9.30;67.00;;;4.16;100.00;95283.97;4980494;28;20061;-51
2023/03/12 08:23:34;;;;;;;3.88;2.70;;;9.30;67.10;;;4.22;100.00;95286.72;4970878;28;20034;-49
2023/03/12 08:26:06;;;;;;;2.80;2.20;;;9.30;67.10;;;4.26;100.00;95290.47;4981959;28;20357;-56
2023/03/12 08:28:38;;;;;;;4.55;2.40;;;9.40;68.00;;;4.31;100.00;95290.59;4983546;28;20034;-50
2023/03/12 08:31:05;;;;;;;5.28;2.60;;;9.40;67.30;;;4.34;100.00;95288.28;4965765;28;20068;-52
2023/03/12 08:33:31;;;;;;;4.10;3.00;;;9.50;67.40;;;4.40;100.00;95291.84;4988697;28;20121;-54
2023/03/12 08:35:57;;;;;;;4.05;3.20;;;9.50;67.40;;;4.48;100.00;95295.94;4974394;28;20032;-53
2023/03/12 08:38:23;;;;;;;7.05;3.33;;;9.60;67.40;;;4.56;100.00;95300.88;4984673;28;20404;-52
2023/03/12 08:41:02;;;;;;;3.85;2.83;;;9.70;67.40;;;4.63;100.00;95294.41;4981515;28;20049;-54
2023/03/12 08:43:43;;;;;;;5.32;3.70;;;9.90;67.40;;;4.68;100.00;95292.94;4987291;28;20431;-53
2023/03/12 08:46:09;;;;;;;6.55;3.53;;;10.00;67.30;;;4.78;100.00;95291.28;4986641;28;20018;-53
2023/03/12 08:48:38;;;;;;;5.15;3.50;;;10.10;67.30;;;4.90;100.00;95290.44;4979586;28;20042;-51
2023/03/12 08:51:06;;;;;;;4.10;3.05;;;10.20;67.20;;;5.01;100.00;95292.22;4976505;28;20033;-56
2023/03/12 08:53:35;;;;;;;4.55;3.30;;;10.20;67.20;;;4.88;100.00;95293.31;4972065;28;20028;-56
2023/03/12 08:56:04;;;;;;;3.40;2.63;;;10.30;67.20;;;4.99;100.00;95292.47;4986691;28;20729;-52
2023/03/12 08:58:31;;;;;;;43.42;5.25;;;10.30;67.10;;;5.08;100.00;95298.19;4972169;28;20063;-51
2023/03/12 09:00:59;;;;;;;5.35;3.58;;;10.30;67.20;;;5.17;100.00;95306.50;4986072;28;20036;-52
2023/03/12 09:03:31;;;;;;;5.95;3.45;;;10.40;67.10;;;5.24;100.00;95291.31;4976347;28;20036;-49
2023/03/12 09:06:24;;;;;;;6.85;3.63;;;10.40;67.10;;;5.31;100.00;95298.03;4994024;28;20021;-53
2023/03/12 09:08:50;;;;;;;6.45;3.35;;;10.50;67.10;;;5.38;100.00;95297.09;5000645;28;20116;-54
2023/03/12 09:11:17;;;;;;;4.70;3.53;;;10.60;67.10;;;5.46;100.00;95307.28;4987749;28;20707;-49
2023/03/12 09:13:46;;;;;;;5.15;3.33;;;10.80;67.10;;;5.50;100.00;95300.47;4989997;28;20489;-50
2023/03/12 09:16:17;;;;;;;5.85;3.47;;;10.80;67.10;;;5.59;100.00;95301.69;4983267;28;20037;-52
2023/03/12 09:18:46;;;;;;;5.55;3.97;;;10.90;67.20;;;5.68;100.00;95308.19;4973686;28;20109;-53
2023/03/12 09:21:12;;;;;;;6.65;4.15;;;10.90;67.10;;;5.76;100.00;95301.69;4962618;28;20062;-51
2023/03/12 09:23:39;;;;;;;4.15;3.17;;;11.10;67.10;;;5.94;100.00;95309.41;4969966;28;20136;-52
2023/03/12 09:26:12;;;;;;;7.18;3.83;;;11.30;67.10;;;6.03;100.00;95313.22;4977922;28;20051;-53
2023/03/12 09:28:38;;;;;;;;;;;11.40;67.10;;;6.19;100.00;95313.44;4976918;28;20025;-52
2023/03/12 09:31:05;;;;;;;5.53;3.05;;;11.50;66.80;;;6.24;100.00;95314.34;4988212;28;19911;-53
2023/03/12 09:33:35;;;;;;;4.20;3.10;;;11.50;66.80;;;6.34;100.00;95324.25;4996604;28;20033;-52
2023/03/12 09:36:02;;;;;;;4.72;3.42;;;11.70;66.80;;;6.43;100.00;95316.69;4991473;28;20077;-51
2023/03/12 09:38:30;;;;;;;6.30;4.25;;;11.90;66.80;;;6.56;100.00;95313.69;4989679;28;20147;-54
2023/03/12 09:40:57;;;;;;;5.28;3.60;;;12.10;66.70;;;6.73;100.00;95314.41;4974818;28;20420;-54
2023/03/12 09:43:42;;;;;;;5.13;3.63;;;12.30;66.60;;;6.87;100.00;95314.88;4966772;28;20046;-51
2023/03/12 09:46:31;;;;;;;4.05;3.08;;;12.50;66.50;;;7.00;100.00;95308.38;4966167;28;20034;-54
2023/03/12 09:49:10;;;;;;;4.70;3.38;;;12.70;66.40;;;7.08;100.00;95317.72;4997652;28;20446;-55
2023/03/12 09:51:53;;;;;;;4.57;3.58;;;12.70;66.30;;;7.16;100.00;95319.94;4982939;28;20025;-55
2023/03/12 09:54:58;;;;;;;5.25;3.05;;;12.80;66.30;;;7.18;100.00;95328.44;4988544;28;20069;-50
2023/03/12 09:57:29;;;;;;;5.78;2.80;;;12.80;66.00;;;7.24;100.00;95327.47;4991366;28;20452;-55
2023/03/12 09:59:56;;;;;;;5.15;2.95;;;12.90;65.90;;;7.30;100.00;95329.09;4988582;28;20262;-55
2023/03/12 10:02:50;;;;;;;4.35;2.60;;;12.90;65.70;;;7.30;100.00;95334.41;4998885;28;20040;-51
2023/03/12 10:06:14;;;;;;;3.35;2.60;;;13.00;65.60;;;7.48;100.00;95341.19;4985572;28;20105;-52
2023/03/12 10:09:36;;;;;;;5.38;2.70;;;13.10;65.50;;;7.57;100.00;95342.34;4994356;28;20463;-50
2023/03/12 10:12:41;;;;;;;3.40;2.65;;;13.10;65.40;;;7.49;100.00;95345.47;4983400;28;20116;-55
2023/03/12 10:16:05;;;;;;;14.50;3.10;;;13.10;65.40;;;7.56;100.00;95339.94;4968225;28;20037;-51
2023/03/12 10:18:46;;;;;;;4.32;3.10;;;13.10;65.30;;;7.51;100.00;95339.91;4980908;28;20025;-52
2023/03/12 10:22:04;;;;;;;6.07;2.25;;;13.20;65.30;;;7.55;100.00;95343.63;4992601;28;20116;-52
2023/03/12 10:25:15;;;;;;;4.03;2.47;;;13.20;65.10;;;7.63;100.00;95341.34;4998574;23;20471;-49
2023/03/12 10:27:42;;;;;;;2.60;2.05;;;13.10;65.20;;;7.74;100.00;95346.72;4940010;28;20050;-49
2023/03/12 10:30:24;;;;;;;4.07;2.47;;;13.20;65.30;;;7.82;100.00;95343.63;4940680;28;20418;-48
2023/03/12 10:33:03;;;;;;;2.42;2.20;;;13.30;65.40;;;7.88;100.00;95346.06;4963394;28;20049;-48
2023/03/12 10:35:30;;;;;;;3.72;2.28;;;13.40;65.30;;;7.92;100.00;95345.56;4968438;28;20034;-52
2023/03/12 10:38:03;;;;;;;4.25;2.00;;;13.50;65.20;;;7.95;100.00;95342.41;4979929;28;20044;-50
2023/03/12 10:40:37;;;;;;;3.40;1.90;;;13.60;65.10;;;7.93;100.00;95340.00;4941998;28;20026;-49